createdAt,value
2022-07-29T00:01:00.517Z,1
2022-07-29T00:02:02.573Z,0
2022-07-29T00:03:04.630Z,0
2022-07-29T00:04:06.580Z,0
2022-07-29T00:05:08.529Z,1
2022-07-29T00:06:10.519Z,1
2022-07-29T00:07:12.931Z,1
2022-07-29T00:08:14.496Z,2
2022-07-29T00:09:16.521Z,1
2022-07-29T00:10:19.603Z,1
2022-07-29T00:11:21.517Z,1
2022-07-29T00:12:25.814Z,2
2022-07-29T00:13:31.939Z,1
2022-07-29T00:14:27.769Z,1
2022-07-29T00:15:29.523Z,0
2022-07-29T00:16:31.580Z,0
2022-07-29T00:17:33.529Z,1
2022-07-29T00:18:35.554Z,1
2022-07-29T00:19:37.556Z,0
2022-07-29T00:20:39.572Z,1
2022-07-29T00:21:41.552Z,1
2022-07-29T00:22:43.537Z,1
2022-07-29T00:23:45.542Z,0
2022-07-29T00:24:47.611Z,0
2022-07-29T00:25:49.548Z,0
2022-07-29T00:26:51.540Z,0
2022-07-29T00:27:53.537Z,0
2022-07-29T00:29:06.475Z,0
2022-07-29T00:29:57.580Z,0
2022-07-29T00:30:59.561Z,0
2022-07-29T00:32:01.755Z,0
2022-07-29T00:33:05.880Z,0
2022-07-29T00:34:05.574Z,0
2022-07-29T00:35:07.534Z,0
2022-07-29T00:36:09.618Z,0
2022-07-29T00:37:11.557Z,0
2022-07-29T00:38:13.557Z,0
2022-07-29T00:39:15.560Z,0
2022-07-29T00:40:17.586Z,0
2022-07-29T00:41:19.619Z,0
2022-07-29T00:42:21.588Z,0
2022-07-29T00:43:23.572Z,0
2022-07-29T00:44:25.576Z,1
2022-07-29T00:45:27.577Z,0
2022-07-29T00:46:29.701Z,0
2022-07-29T00:47:31.578Z,0
2022-07-29T00:48:33.635Z,0
2022-07-29T00:49:35.569Z,0
2022-07-29T00:50:37.591Z,1
2022-07-29T00:51:39.568Z,0
2022-07-29T00:52:41.587Z,0
2022-07-29T00:53:43.646Z,0
2022-07-29T00:54:45.640Z,0
2022-07-29T00:55:47.591Z,0
2022-07-29T00:56:49.821Z,0
2022-07-29T00:57:51.608Z,1
2022-07-29T00:58:53.709Z,0
2022-07-29T00:59:55.596Z,0
2022-07-29T01:00:57.684Z,1
2022-07-29T01:01:59.679Z,0
2022-07-29T01:03:01.630Z,0
2022-07-29T01:04:03.640Z,0
2022-07-29T01:05:05.608Z,1
2022-07-29T01:06:07.613Z,0
2022-07-29T01:07:09.609Z,0
2022-07-29T01:08:11.640Z,0
2022-07-29T01:09:13.628Z,1
2022-07-29T01:10:15.625Z,0
2022-07-29T01:11:17.804Z,0
2022-07-29T01:12:20.405Z,0
2022-07-29T01:13:21.625Z,0
2022-07-29T01:14:23.622Z,0
2022-07-29T01:15:25.621Z,0
2022-07-29T01:16:28.214Z,0
2022-07-29T01:17:29.628Z,0
2022-07-29T01:18:31.677Z,0
2022-07-29T01:19:33.628Z,0
2022-07-29T01:20:35.653Z,0
2022-07-29T01:21:37.656Z,0
2022-07-29T01:22:39.637Z,0
2022-07-29T01:23:41.666Z,0
2022-07-29T01:24:43.651Z,0
2022-07-29T01:25:45.654Z,0
2022-07-29T01:26:47.703Z,0
2022-07-29T01:27:49.643Z,0
2022-07-29T01:28:51.650Z,0
2022-07-29T01:29:53.646Z,0
2022-07-29T01:30:55.744Z,0
2022-07-29T01:31:59.703Z,0
2022-07-29T01:32:59.688Z,0
2022-07-29T01:34:01.717Z,0
2022-07-29T01:35:03.670Z,0
2022-07-29T01:36:05.698Z,0
2022-07-29T01:37:07.654Z,0
2022-07-29T01:38:09.674Z,0
2022-07-29T01:39:11.659Z,0
2022-07-29T01:40:13.777Z,0
2022-07-29T01:41:15.665Z,0
2022-07-29T01:42:17.669Z,0
2022-07-29T01:43:19.685Z,0
2022-07-29T01:44:21.667Z,0
2022-07-29T01:45:23.693Z,0
2022-07-29T01:46:25.751Z,0
2022-07-29T01:47:27.670Z,0
2022-07-29T01:48:29.727Z,0
2022-07-29T01:49:31.671Z,0
2022-07-29T01:50:33.673Z,0
2022-07-29T01:51:35.676Z,0
2022-07-29T01:52:37.692Z,0
2022-07-29T01:53:39.713Z,0
2022-07-29T01:54:41.708Z,0
2022-07-29T01:55:43.699Z,0
2022-07-29T01:56:45.672Z,0
2022-07-29T01:57:47.678Z,0
2022-07-29T01:58:49.714Z,0
2022-07-29T01:59:51.714Z,0
2022-07-29T02:00:53.732Z,0
2022-07-29T02:01:55.778Z,0
2022-07-29T02:02:57.691Z,0
2022-07-29T02:03:59.763Z,0
2022-07-29T02:05:01.900Z,0
2022-07-29T02:06:03.696Z,0
2022-07-29T02:07:05.701Z,0
2022-07-29T02:08:07.706Z,0
2022-07-29T02:09:09.742Z,0
2022-07-29T02:10:11.711Z,0
2022-07-29T02:11:13.738Z,0
2022-07-29T02:12:15.711Z,0
2022-07-29T02:13:17.703Z,0
2022-07-29T02:14:19.773Z,0
2022-07-29T02:15:21.719Z,0
2022-07-29T02:16:23.795Z,0
2022-07-29T02:17:25.721Z,0
2022-07-29T02:18:27.718Z,0
2022-07-29T02:19:29.862Z,0
2022-07-29T02:20:31.750Z,0
2022-07-29T02:21:33.758Z,0
2022-07-29T02:22:35.736Z,4
2022-07-29T02:23:50.255Z,9
2022-07-29T02:24:39.751Z,9
2022-07-29T02:25:41.798Z,10
2022-07-29T02:26:43.735Z,10
2022-07-29T02:27:48.296Z,10
2022-07-29T02:28:49.758Z,9
2022-07-29T02:29:51.791Z,9
2022-07-29T02:30:53.886Z,9
2022-07-29T02:31:55.766Z,8
2022-07-29T02:32:57.740Z,5
2022-07-29T02:34:00.841Z,6
2022-07-29T02:35:03.291Z,6
2022-07-29T02:36:04.820Z,10
2022-07-29T02:37:06.734Z,10
2022-07-29T02:38:08.753Z,13
2022-07-29T02:39:10.788Z,16
2022-07-29T02:40:12.767Z,18
2022-07-29T02:41:14.776Z,19
2022-07-29T02:42:16.768Z,19
2022-07-29T02:43:18.781Z,23
2022-07-29T02:44:21.070Z,23
2022-07-29T02:45:22.759Z,24
2022-07-29T02:46:28.693Z,21
2022-07-29T02:47:26.779Z,20
2022-07-29T02:48:28.798Z,18
2022-07-29T02:49:30.895Z,17
2022-07-29T02:50:32.764Z,16
2022-07-29T02:51:41.165Z,13
2022-07-29T02:52:36.779Z,11
2022-07-29T02:53:38.807Z,10
2022-07-29T02:54:40.819Z,8
2022-07-29T02:55:42.777Z,6
2022-07-29T02:56:44.787Z,6
2022-07-29T02:57:53.757Z,5
2022-07-29T02:58:48.821Z,4
2022-07-29T02:59:50.803Z,3
2022-07-29T03:00:52.819Z,3
2022-07-29T03:01:54.844Z,3
2022-07-29T03:02:56.780Z,2
2022-07-29T03:03:58.786Z,2
2022-07-29T03:05:00.950Z,1
2022-07-29T03:06:02.824Z,2
2022-07-29T03:07:04.812Z,1
2022-07-29T03:08:06.815Z,2
2022-07-29T03:09:12.743Z,1
2022-07-29T03:10:13.377Z,0
2022-07-29T03:11:12.820Z,0
2022-07-29T03:12:14.807Z,0
2022-07-29T03:13:16.795Z,0
2022-07-29T03:14:19.409Z,0
2022-07-29T03:15:20.797Z,0
2022-07-29T03:16:22.904Z,0
2022-07-29T03:17:24.819Z,0
2022-07-29T03:18:26.819Z,0
2022-07-29T03:19:28.852Z,0
2022-07-29T03:20:31.066Z,0
2022-07-29T03:21:32.901Z,0
2022-07-29T03:22:34.805Z,0
2022-07-29T03:23:37.055Z,1
2022-07-29T03:24:38.832Z,0
2022-07-29T03:25:40.836Z,0
2022-07-29T03:26:42.846Z,1
2022-07-29T03:27:44.832Z,1
2022-07-29T03:28:46.860Z,1
2022-07-29T03:29:49.633Z,0
2022-07-29T03:30:50.872Z,0
2022-07-29T03:31:52.818Z,0
2022-07-29T03:32:54.868Z,0
2022-07-29T03:33:56.840Z,1
2022-07-29T03:34:58.845Z,0
2022-07-29T03:36:00.846Z,1
2022-07-29T03:37:02.836Z,1
2022-07-29T03:38:04.912Z,2
2022-07-29T03:39:06.837Z,1
2022-07-29T03:40:08.857Z,1
2022-07-29T03:41:10.850Z,1
2022-07-29T03:42:12.851Z,1
2022-07-29T03:43:14.889Z,1
2022-07-29T03:44:17.254Z,1
2022-07-29T03:45:18.938Z,1
2022-07-29T03:46:21.078Z,1
2022-07-29T03:47:22.876Z,1
2022-07-29T03:48:24.923Z,1
2022-07-29T03:49:26.907Z,1
2022-07-29T03:50:28.910Z,1
2022-07-29T03:51:31.603Z,1
2022-07-29T03:52:32.918Z,1
2022-07-29T03:53:34.873Z,1
2022-07-29T03:54:36.949Z,1
2022-07-29T03:55:38.913Z,1
2022-07-29T03:56:40.872Z,2
2022-07-29T03:57:42.908Z,1
2022-07-29T03:58:44.867Z,1
2022-07-29T03:59:46.895Z,1
2022-07-29T04:00:49.021Z,1
2022-07-29T04:01:51.166Z,0
2022-07-29T04:02:52.968Z,0
2022-07-29T04:03:54.945Z,0
2022-07-29T04:04:56.885Z,0
2022-07-29T04:05:58.885Z,0
2022-07-29T04:07:00.882Z,0
2022-07-29T04:08:02.926Z,0
2022-07-29T04:09:04.903Z,0
2022-07-29T04:10:06.950Z,0
2022-07-29T04:11:08.922Z,1
2022-07-29T04:12:12.161Z,2
2022-07-29T04:13:14.898Z,1
2022-07-29T04:14:17.354Z,2
2022-07-29T04:15:18.902Z,2
2022-07-29T04:16:20.978Z,2
2022-07-29T04:17:22.941Z,2
2022-07-29T04:18:24.911Z,2
2022-07-29T04:19:26.910Z,2
2022-07-29T04:20:28.938Z,2
2022-07-29T04:21:30.932Z,2
2022-07-29T04:22:32.945Z,3
2022-07-29T04:23:34.910Z,3
2022-07-29T04:24:44.289Z,3
2022-07-29T04:25:42.946Z,3
2022-07-29T04:26:44.948Z,3
2022-07-29T04:27:46.964Z,3
2022-07-29T04:28:48.939Z,4
2022-07-29T04:29:55.988Z,4
2022-07-29T04:30:52.990Z,3
2022-07-29T04:31:54.986Z,3
2022-07-29T04:32:56.930Z,4
2022-07-29T04:33:58.939Z,4
2022-07-29T04:35:00.945Z,4
2022-07-29T04:36:02.981Z,4
2022-07-29T04:37:04.967Z,4
2022-07-29T04:38:06.979Z,4
2022-07-29T04:39:08.940Z,4
2022-07-29T04:40:10.968Z,5
2022-07-29T04:41:12.949Z,5
2022-07-29T04:42:15.031Z,4
2022-07-29T04:43:16.980Z,4
2022-07-29T04:44:19.374Z,4
2022-07-29T04:45:22.205Z,5
2022-07-29T04:46:22.993Z,6
2022-07-29T04:47:25.042Z,5
2022-07-29T04:48:28.806Z,5
2022-07-29T04:49:28.994Z,6
2022-07-29T04:50:30.965Z,5
2022-07-29T04:51:32.955Z,6
2022-07-29T04:52:35.018Z,8
2022-07-29T04:53:36.985Z,6
2022-07-29T04:54:39.081Z,6
2022-07-29T04:55:40.987Z,6
2022-07-29T04:56:43.006Z,9
2022-07-29T04:57:45.000Z,8
2022-07-29T04:58:47.026Z,8
2022-07-29T04:59:49.004Z,6
2022-07-29T05:00:50.984Z,9
2022-07-29T05:01:53.118Z,8
2022-07-29T05:02:55.021Z,8
2022-07-29T05:04:00.243Z,8
2022-07-29T05:04:58.993Z,8
2022-07-29T05:06:00.987Z,8
2022-07-29T05:07:03.009Z,9
2022-07-29T05:08:05.015Z,9
2022-07-29T05:09:06.991Z,9
2022-07-29T05:10:09.000Z,10
2022-07-29T05:11:11.399Z,11
2022-07-29T05:12:13.003Z,10
2022-07-29T05:13:15.021Z,11
2022-07-29T05:14:17.688Z,10
2022-07-29T05:15:19.022Z,10
2022-07-29T05:16:21.136Z,11
2022-07-29T05:17:22.998Z,10
2022-07-29T05:18:26.131Z,10
2022-07-29T05:19:27.047Z,9
2022-07-29T05:20:29.048Z,9
2022-07-29T05:21:30.995Z,10
2022-07-29T05:22:33.011Z,10
2022-07-29T05:23:35.042Z,10
2022-07-29T05:24:37.048Z,11
2022-07-29T05:25:40.693Z,10
2022-07-29T05:26:41.024Z,11
2022-07-29T05:27:43.020Z,10
2022-07-29T05:28:45.080Z,10
2022-07-29T05:29:47.256Z,11
2022-07-29T05:30:49.055Z,12
2022-07-29T05:31:51.043Z,11
2022-07-29T05:32:53.036Z,11
2022-07-29T05:33:56.188Z,12
2022-07-29T05:34:58.051Z,12
2022-07-29T05:36:00.991Z,11
2022-07-29T05:37:02.064Z,12
2022-07-29T05:38:04.048Z,11
2022-07-29T05:39:06.101Z,11
2022-07-29T05:40:08.078Z,12
2022-07-29T05:41:10.039Z,11
2022-07-29T05:42:12.043Z,11
2022-07-29T05:43:14.090Z,11
2022-07-29T05:44:16.263Z,11
2022-07-29T05:45:18.090Z,11
2022-07-29T05:46:20.133Z,11
2022-07-29T05:47:22.459Z,11
2022-07-29T05:48:24.058Z,11
2022-07-29T05:49:36.843Z,12
2022-07-29T05:50:38.071Z,12
2022-07-29T05:51:40.070Z,12
2022-07-29T05:52:42.335Z,12
2022-07-29T05:53:44.095Z,13
2022-07-29T05:54:46.203Z,13
2022-07-29T05:55:48.058Z,13
2022-07-29T05:56:51.520Z,13
2022-07-29T05:57:53.071Z,13
2022-07-29T05:58:55.663Z,14
2022-07-29T05:59:57.098Z,13
2022-07-29T06:00:59.962Z,16
2022-07-29T06:02:01.234Z,14
2022-07-29T06:03:03.127Z,16
2022-07-29T06:04:06.114Z,16
2022-07-29T06:05:08.171Z,16
2022-07-29T06:06:10.095Z,17
2022-07-29T06:07:12.117Z,16
2022-07-29T06:08:14.095Z,17
2022-07-29T06:09:16.316Z,17
2022-07-29T06:10:18.133Z,18
2022-07-29T06:11:20.138Z,17
2022-07-29T06:12:22.122Z,17
2022-07-29T06:13:24.092Z,16
2022-07-29T06:14:26.135Z,16
2022-07-29T06:15:28.968Z,16
2022-07-29T06:16:30.533Z,17
2022-07-29T06:17:32.094Z,17
2022-07-29T06:18:34.100Z,18
2022-07-29T06:19:37.011Z,18
2022-07-29T06:20:38.149Z,19
2022-07-29T06:21:42.108Z,17
2022-07-29T06:22:42.115Z,17
2022-07-29T06:23:44.114Z,18
2022-07-29T06:24:46.145Z,18
2022-07-29T06:25:49.204Z,18
2022-07-29T06:26:51.119Z,18
2022-07-29T06:27:53.144Z,36
2022-07-29T06:28:55.114Z,29
2022-07-29T06:29:57.273Z,18
2022-07-29T06:30:59.247Z,16
2022-07-29T06:32:01.193Z,17
2022-07-29T06:33:03.124Z,17
2022-07-29T06:34:05.178Z,17
2022-07-29T06:35:38.074Z,18
2022-07-29T06:36:10.284Z,17
2022-07-29T06:37:15.467Z,16
2022-07-29T06:38:29.884Z,18
2022-07-29T06:39:16.484Z,17
2022-07-29T06:40:18.135Z,18
2022-07-29T06:41:20.640Z,19
2022-07-29T06:42:22.133Z,18
2022-07-29T06:43:24.150Z,19
2022-07-29T06:44:26.175Z,21
2022-07-29T06:45:29.250Z,22
2022-07-29T06:46:31.320Z,23
2022-07-29T06:47:33.152Z,23
2022-07-29T06:48:35.208Z,25
2022-07-29T06:49:37.191Z,26
2022-07-29T06:50:39.169Z,25
2022-07-29T06:51:41.210Z,25
2022-07-29T06:52:43.215Z,25
2022-07-29T06:53:58.703Z,25
2022-07-29T06:54:47.184Z,25
2022-07-29T06:55:49.161Z,24
2022-07-29T06:56:51.242Z,24
2022-07-29T06:57:53.164Z,23
2022-07-29T06:58:55.199Z,23
2022-07-29T06:59:57.174Z,25
2022-07-29T07:00:59.314Z,25
2022-07-29T07:02:01.231Z,24
2022-07-29T07:03:03.179Z,24
2022-07-29T07:04:05.195Z,24
2022-07-29T07:05:07.214Z,25
2022-07-29T07:06:13.225Z,24
2022-07-29T07:07:11.214Z,24
2022-07-29T07:08:13.183Z,25
2022-07-29T07:09:15.214Z,24
2022-07-29T07:10:17.229Z,24
2022-07-29T07:11:19.929Z,25
2022-07-29T07:12:21.210Z,23
2022-07-29T07:13:23.191Z,23
2022-07-29T07:14:25.224Z,21
2022-07-29T07:15:38.528Z,23
2022-07-29T07:16:29.258Z,21
2022-07-29T07:17:31.199Z,21
2022-07-29T07:18:33.244Z,22
2022-07-29T07:19:36.250Z,22
2022-07-29T07:20:38.264Z,21
2022-07-29T07:21:40.250Z,20
2022-07-29T07:22:42.239Z,20
2022-07-29T07:23:44.245Z,21
2022-07-29T07:24:46.226Z,21
2022-07-29T07:25:48.275Z,20
2022-07-29T07:26:50.218Z,20
2022-07-29T07:27:52.228Z,20
2022-07-29T07:28:54.239Z,21
2022-07-29T07:29:56.408Z,23
2022-07-29T07:30:58.286Z,21
2022-07-29T07:32:01.265Z,24
2022-07-29T07:33:02.263Z,24
2022-07-29T07:34:04.261Z,23
2022-07-29T07:35:06.275Z,23
2022-07-29T07:36:08.264Z,24
2022-07-29T07:37:10.233Z,24
2022-07-29T07:38:12.256Z,25
2022-07-29T07:39:14.258Z,24
2022-07-29T07:40:18.509Z,26
2022-07-29T07:41:18.305Z,25
2022-07-29T07:42:20.333Z,24
2022-07-29T07:43:22.254Z,24
2022-07-29T07:44:24.546Z,24
2022-07-29T07:45:26.276Z,25
2022-07-29T07:46:28.285Z,26
2022-07-29T07:47:30.302Z,24
2022-07-29T07:48:32.263Z,25
2022-07-29T07:49:34.294Z,25
2022-07-29T07:50:36.282Z,25
2022-07-29T07:51:38.259Z,25
2022-07-29T07:52:40.279Z,24
2022-07-29T07:53:42.284Z,26
2022-07-29T07:54:44.303Z,25
2022-07-29T07:56:09.758Z,25
2022-07-29T07:56:48.306Z,26
2022-07-29T07:57:50.327Z,26
2022-07-29T07:58:52.368Z,25
2022-07-29T07:59:54.286Z,26
2022-07-29T08:00:56.380Z,26
2022-07-29T08:01:58.451Z,25
2022-07-29T08:03:00.307Z,26
2022-07-29T08:04:02.511Z,26
2022-07-29T08:05:04.403Z,27
2022-07-29T08:06:06.467Z,27
2022-07-29T08:07:08.345Z,27
2022-07-29T08:08:10.305Z,29
2022-07-29T08:09:28.034Z,27
2022-07-29T08:10:14.303Z,27
2022-07-29T08:11:16.308Z,27
2022-07-29T08:12:18.311Z,28
2022-07-29T08:13:20.349Z,28
2022-07-29T08:14:22.313Z,28
2022-07-29T08:15:24.329Z,28
2022-07-29T08:16:26.380Z,29
2022-07-29T08:17:28.296Z,29
2022-07-29T08:18:30.336Z,32
2022-07-29T08:19:32.338Z,31
2022-07-29T08:20:34.322Z,31
2022-07-29T08:21:36.371Z,31
2022-07-29T08:22:38.634Z,29
2022-07-29T08:23:45.792Z,31
2022-07-29T08:24:42.333Z,31
2022-07-29T08:25:44.355Z,32
2022-07-29T08:26:46.395Z,32
2022-07-29T08:27:48.669Z,32
2022-07-29T08:28:50.346Z,33
2022-07-29T08:29:52.359Z,32
2022-07-29T08:30:54.351Z,33
2022-07-29T08:31:56.796Z,32
2022-07-29T08:32:58.391Z,33
2022-07-29T08:34:00.433Z,33
2022-07-29T08:35:03.438Z,35
2022-07-29T08:36:05.334Z,35
2022-07-29T08:37:07.359Z,35
2022-07-29T08:38:09.355Z,37
2022-07-29T08:39:11.382Z,40
2022-07-29T08:40:13.386Z,39
2022-07-29T08:41:15.353Z,39
2022-07-29T08:42:17.347Z,36
2022-07-29T08:43:19.351Z,35
2022-07-29T08:44:22.427Z,36
2022-07-29T08:45:23.434Z,37
2022-07-29T08:46:25.421Z,36
2022-07-29T08:47:27.399Z,36
2022-07-29T08:48:29.361Z,34
2022-07-29T08:49:31.370Z,34
2022-07-29T08:50:33.402Z,35
2022-07-29T08:51:35.420Z,35
2022-07-29T08:52:37.407Z,33
2022-07-29T08:53:39.375Z,34
2022-07-29T08:54:41.381Z,32
2022-07-29T08:55:43.386Z,34
2022-07-29T08:56:45.363Z,35
2022-07-29T08:57:51.036Z,36
2022-07-29T08:58:51.653Z,36
2022-07-29T08:59:52.384Z,36
2022-07-29T09:00:55.437Z,37
2022-07-29T09:01:56.668Z,37
2022-07-29T09:02:58.416Z,40
2022-07-29T09:03:59.809Z,41
2022-07-29T09:05:00.767Z,42
2022-07-29T09:06:03.506Z,43
2022-07-29T09:07:05.398Z,44
2022-07-29T09:08:07.422Z,42
2022-07-29T09:09:09.423Z,42
2022-07-29T09:10:11.478Z,42
2022-07-29T09:11:13.411Z,41
2022-07-29T09:12:28.987Z,40
2022-07-29T09:13:17.457Z,42
2022-07-29T09:14:19.418Z,38
2022-07-29T09:15:21.598Z,38
2022-07-29T09:16:43.991Z,37
2022-07-29T09:17:25.473Z,39
2022-07-29T09:18:31.099Z,39
2022-07-29T09:19:29.431Z,39
2022-07-29T09:20:31.428Z,37
2022-07-29T09:21:33.422Z,36
2022-07-29T09:22:38.840Z,36
2022-07-29T09:23:37.471Z,35
2022-07-29T09:24:39.458Z,35
2022-07-29T09:25:41.443Z,32
2022-07-29T09:26:43.434Z,33
2022-07-29T09:27:45.474Z,33
2022-07-29T09:28:47.465Z,34
2022-07-29T09:29:49.534Z,34
2022-07-29T09:30:51.471Z,34
2022-07-29T09:31:53.537Z,33
2022-07-29T09:32:55.476Z,34
2022-07-29T09:33:57.448Z,34
2022-07-29T09:34:59.481Z,34
2022-07-29T09:36:01.792Z,34
2022-07-29T09:37:03.447Z,33
2022-07-29T09:38:05.462Z,33
2022-07-29T09:39:07.852Z,35
2022-07-29T09:40:11.759Z,35
2022-07-29T09:41:11.464Z,36
2022-07-29T09:42:13.463Z,34
2022-07-29T09:43:15.502Z,34
2022-07-29T09:44:17.700Z,35
2022-07-29T09:45:19.467Z,35
2022-07-29T09:46:21.562Z,33
2022-07-29T09:47:23.507Z,33
2022-07-29T09:48:25.488Z,33
2022-07-29T09:49:27.609Z,33
2022-07-29T09:50:29.466Z,33
2022-07-29T09:51:37.945Z,33
2022-07-29T09:52:33.497Z,33
2022-07-29T09:53:35.488Z,33
2022-07-29T09:54:37.481Z,33
2022-07-29T09:55:39.485Z,32
2022-07-29T09:56:41.526Z,32
2022-07-29T09:57:43.524Z,32
2022-07-29T09:58:45.545Z,32
2022-07-29T09:59:49.913Z,32
2022-07-29T10:00:49.574Z,32
2022-07-29T10:01:51.519Z,32
2022-07-29T10:02:53.590Z,32
2022-07-29T10:03:55.540Z,32
2022-07-29T10:04:57.548Z,33
2022-07-29T10:05:59.506Z,33
2022-07-29T10:07:04.601Z,33
2022-07-29T10:08:03.508Z,34
2022-07-29T10:09:05.560Z,34
2022-07-29T10:10:07.735Z,34
2022-07-29T10:11:09.522Z,33
2022-07-29T10:12:11.546Z,34
2022-07-29T10:13:15.646Z,35
2022-07-29T10:14:15.626Z,34
2022-07-29T10:15:17.592Z,34
2022-07-29T10:16:19.611Z,33
2022-07-29T10:17:21.721Z,33
2022-07-29T10:18:23.537Z,34
2022-07-29T10:19:25.592Z,35
2022-07-29T10:20:28.855Z,35
2022-07-29T10:21:35.131Z,35
2022-07-29T10:22:52.239Z,35
2022-07-29T10:23:46.061Z,34
2022-07-29T10:24:36.613Z,35
2022-07-29T10:25:38.554Z,36
2022-07-29T10:26:40.544Z,36
2022-07-29T10:27:42.690Z,36
2022-07-29T10:28:44.544Z,35
2022-07-29T10:29:46.603Z,35
2022-07-29T10:30:48.608Z,35
2022-07-29T10:31:50.659Z,35
2022-07-29T10:32:54.310Z,34
2022-07-29T10:33:54.543Z,33
2022-07-29T10:34:56.592Z,34
2022-07-29T10:35:58.579Z,33
2022-07-29T10:37:00.568Z,35
2022-07-29T10:38:02.724Z,35
2022-07-29T10:39:05.071Z,35
2022-07-29T10:40:06.619Z,35
2022-07-29T10:41:08.742Z,34
2022-07-29T10:42:16.894Z,35
2022-07-29T10:43:17.567Z,36
2022-07-29T10:44:22.923Z,37
2022-07-29T10:45:21.624Z,36
2022-07-29T10:46:23.739Z,35
2022-07-29T10:47:25.581Z,37
2022-07-29T10:48:27.592Z,39
2022-07-29T10:49:30.360Z,37
2022-07-29T10:50:31.581Z,39
2022-07-29T10:51:33.572Z,37
2022-07-29T10:52:35.592Z,36
2022-07-29T10:53:37.593Z,39
2022-07-29T10:54:42.230Z,39
2022-07-29T10:55:41.907Z,37
2022-07-29T10:56:44.198Z,37
2022-07-29T10:57:52.378Z,40
2022-07-29T10:58:49.995Z,40
2022-07-29T10:59:49.637Z,42
2022-07-29T11:00:51.674Z,41
2022-07-29T11:01:53.468Z,42
2022-07-29T11:02:54.713Z,43
2022-07-29T11:03:57.129Z,41
2022-07-29T11:04:58.602Z,40
2022-07-29T11:06:00.863Z,41
2022-07-29T11:07:03.829Z,41
2022-07-29T11:08:04.772Z,39
2022-07-29T11:09:06.633Z,40
2022-07-29T11:10:08.037Z,40
2022-07-29T11:11:09.420Z,41
2022-07-29T11:12:10.032Z,42
2022-07-29T11:13:11.023Z,44
2022-07-29T11:14:12.007Z,44
2022-07-29T11:15:13.042Z,45
2022-07-29T11:16:15.967Z,46
2022-07-29T11:17:15.027Z,47
2022-07-29T11:18:17.379Z,47
2022-07-29T11:19:21.510Z,46
2022-07-29T11:20:19.647Z,46
2022-07-29T11:21:23.239Z,46
2022-07-29T11:22:23.674Z,48
2022-07-29T11:23:25.655Z,47
2022-07-29T11:24:28.683Z,41
2022-07-29T11:25:42.687Z,41
2022-07-29T11:26:31.662Z,41
2022-07-29T11:27:33.685Z,39
2022-07-29T11:28:35.649Z,39
2022-07-29T11:29:39.927Z,39
2022-07-29T11:30:39.682Z,37
2022-07-29T11:31:41.648Z,40
2022-07-29T11:33:54.916Z,41
2022-07-29T11:34:47.668Z,39
2022-07-29T11:35:53.724Z,40
2022-07-29T11:36:51.669Z,39
2022-07-29T11:37:55.404Z,39
2022-07-29T11:38:55.677Z,40
2022-07-29T11:40:01.603Z,37
2022-07-29T11:40:59.673Z,39
2022-07-29T11:42:04.917Z,37
2022-07-29T11:43:07.165Z,37
2022-07-29T11:44:05.680Z,37
2022-07-29T11:45:33.477Z,37
2022-07-29T11:46:09.724Z,39
2022-07-29T11:47:11.683Z,40
2022-07-29T11:48:28.133Z,39
2022-07-29T11:49:15.870Z,36
2022-07-29T11:50:17.750Z,39
2022-07-29T11:51:19.742Z,37
2022-07-29T11:52:21.733Z,39
2022-07-29T11:53:23.833Z,39
2022-07-29T11:54:27.381Z,37
2022-07-29T11:55:32.224Z,39
2022-07-29T11:56:29.706Z,39
2022-07-29T11:57:36.135Z,37
2022-07-29T11:58:33.714Z,39
2022-07-29T11:59:35.720Z,37
2022-07-29T12:00:37.751Z,37
2022-07-29T12:01:39.715Z,40
2022-07-29T12:02:41.901Z,40
2022-07-29T12:03:43.842Z,40
2022-07-29T12:04:45.892Z,41
2022-07-29T12:05:48.018Z,38
2022-07-29T12:06:49.800Z,37
2022-07-29T12:07:03.008Z,39
2022-07-29T12:07:51.729Z,37
2022-07-29T12:08:53.745Z,37
2022-07-29T12:09:56.874Z,36
2022-07-29T12:10:57.913Z,36
2022-07-29T12:12:04.711Z,37
2022-07-29T12:13:01.752Z,39
2022-07-29T12:14:03.804Z,39
2022-07-29T12:15:05.778Z,37
2022-07-29T12:16:07.804Z,39
2022-07-29T12:17:09.798Z,36
2022-07-29T12:18:11.773Z,37
2022-07-29T12:19:13.810Z,36
2022-07-29T12:20:15.774Z,36
2022-07-29T12:21:17.763Z,37
2022-07-29T12:22:19.804Z,38
2022-07-29T12:23:21.753Z,37
2022-07-29T12:24:26.629Z,38
2022-07-29T12:25:33.897Z,36
2022-07-29T12:26:27.760Z,36
2022-07-29T12:27:29.817Z,37
2022-07-29T12:28:31.755Z,39
2022-07-29T12:29:35.295Z,37
2022-07-29T12:30:35.811Z,37
2022-07-29T12:31:42.567Z,40
2022-07-29T12:32:39.919Z,41
2022-07-29T12:33:41.144Z,41
2022-07-29T12:34:42.789Z,41
2022-07-29T12:35:45.881Z,42
2022-07-29T12:36:46.773Z,42
2022-07-29T12:37:48.828Z,42
2022-07-29T12:38:50.785Z,42
2022-07-29T12:39:52.799Z,42
2022-07-29T12:40:54.803Z,40
2022-07-29T12:42:04.267Z,41
2022-07-29T12:42:58.815Z,40
2022-07-29T12:44:01.038Z,41
2022-07-29T12:45:02.415Z,42
2022-07-29T12:46:03.387Z,42
2022-07-29T12:47:04.183Z,42
2022-07-29T12:48:05.336Z,43
2022-07-29T12:49:06.301Z,43
2022-07-29T12:50:07.896Z,43
2022-07-29T12:51:09.916Z,43
2022-07-29T12:52:11.847Z,43
2022-07-29T12:53:13.803Z,43
2022-07-29T12:54:15.801Z,42
2022-07-29T12:55:17.864Z,42
2022-07-29T12:56:41.559Z,42
2022-07-29T12:57:21.816Z,43
2022-07-29T12:58:23.815Z,42
2022-07-29T12:59:25.855Z,42
2022-07-29T13:00:27.887Z,41
2022-07-29T13:01:29.825Z,41
2022-07-29T13:02:31.292Z,42
2022-07-29T13:03:35.842Z,43
2022-07-29T13:04:33.212Z,44
2022-07-29T13:05:34.216Z,45
2022-07-29T13:06:35.208Z,44
2022-07-29T13:07:39.687Z,46
2022-07-29T13:08:38.841Z,44
2022-07-29T13:09:40.936Z,46
2022-07-29T13:10:42.858Z,44
2022-07-29T13:11:48.298Z,44
2022-07-29T13:12:46.880Z,43
2022-07-29T13:13:48.858Z,42
2022-07-29T13:14:50.856Z,41
2022-07-29T13:15:52.921Z,42
2022-07-29T13:16:54.920Z,43
2022-07-29T13:17:56.873Z,42
2022-07-29T13:18:58.863Z,41
2022-07-29T13:20:00.276Z,44
2022-07-29T13:21:01.236Z,42
2022-07-29T13:22:02.292Z,44
2022-07-29T13:23:03.299Z,47
2022-07-29T13:24:04.871Z,46
2022-07-29T13:25:16.694Z,46
2022-07-29T13:26:27.717Z,46
2022-07-29T13:27:28.890Z,43
2022-07-29T13:28:30.871Z,44
2022-07-29T13:29:32.861Z,44
2022-07-29T13:30:34.916Z,42
2022-07-29T13:31:36.936Z,42
2022-07-29T13:32:38.926Z,41
2022-07-29T13:33:40.936Z,41
2022-07-29T13:34:42.881Z,41
2022-07-29T13:35:44.891Z,41
2022-07-29T13:36:46.893Z,41
2022-07-29T13:37:49.097Z,40
2022-07-29T13:38:50.918Z,40
2022-07-29T13:39:53.392Z,40
2022-07-29T13:40:54.991Z,40
2022-07-29T13:41:57.137Z,41
2022-07-29T13:42:58.920Z,41
2022-07-29T13:44:00.911Z,41
2022-07-29T13:45:02.960Z,39
2022-07-29T13:46:05.005Z,41
2022-07-29T13:47:06.980Z,44
2022-07-29T13:48:10.050Z,42
2022-07-29T13:49:11.968Z,40
2022-07-29T13:50:13.905Z,42
2022-07-29T13:51:15.909Z,40
2022-07-29T13:52:18.009Z,40
2022-07-29T13:53:19.917Z,41
2022-07-29T13:54:21.919Z,39
2022-07-29T13:55:23.960Z,40
2022-07-29T13:56:25.921Z,39
2022-07-29T13:57:27.992Z,40
2022-07-29T13:58:29.939Z,37
2022-07-29T13:59:31.954Z,37
2022-07-29T14:00:33.941Z,39
2022-07-29T14:01:36.053Z,37
2022-07-29T14:02:37.964Z,39
2022-07-29T14:03:39.975Z,39
2022-07-29T14:04:41.967Z,40
2022-07-29T14:05:43.972Z,40
2022-07-29T14:06:46.190Z,41
2022-07-29T14:07:48.576Z,41
2022-07-29T14:08:50.950Z,41
2022-07-29T14:09:52.937Z,41
2022-07-29T14:10:54.953Z,40
2022-07-29T14:11:57.149Z,40
2022-07-29T14:12:58.950Z,40
2022-07-29T14:14:00.988Z,40
2022-07-29T14:15:03.153Z,39
2022-07-29T14:16:04.955Z,39
2022-07-29T14:17:07.042Z,-1
2022-07-29T14:18:08.975Z,39
2022-07-29T14:19:10.991Z,39
2022-07-29T14:20:13.000Z,39
2022-07-29T14:21:14.986Z,37
2022-07-29T14:22:16.971Z,36
2022-07-29T14:23:19.596Z,36
2022-07-29T14:24:21.811Z,36
2022-07-29T14:25:23.607Z,36
2022-07-29T14:26:25.021Z,36
2022-07-29T14:27:34.950Z,36
2022-07-29T14:28:29.001Z,36
2022-07-29T14:29:35.309Z,37
2022-07-29T14:30:33.003Z,37
2022-07-29T14:31:35.058Z,37
2022-07-29T14:32:37.041Z,37
2022-07-29T14:33:38.986Z,39
2022-07-29T14:34:40.988Z,39
2022-07-29T14:35:43.053Z,39
2022-07-29T14:36:45.010Z,39
2022-07-29T14:37:47.430Z,39
2022-07-29T14:38:49.012Z,39
2022-07-29T14:39:50.999Z,37
2022-07-29T14:40:53.176Z,37
2022-07-29T14:41:55.305Z,37
2022-07-29T14:42:57.071Z,39
2022-07-29T14:43:59.011Z,40
2022-07-29T14:45:01.014Z,37
2022-07-29T14:46:08.047Z,39
2022-07-29T14:47:07.515Z,39
2022-07-29T14:48:07.041Z,39
2022-07-29T14:49:09.112Z,40
2022-07-29T14:50:11.035Z,42
2022-07-29T14:51:13.041Z,42
2022-07-29T14:52:15.069Z,43
2022-07-29T14:53:17.031Z,42
2022-07-29T14:54:19.036Z,41
2022-07-29T14:55:21.094Z,41